Luverne, MN

10:20 PM CDT on September 25, 2017 (GMT -0500)
Luverne

Weather History for KLYV - April, 2014

Change the Weather History Date:

Wednesday, April 23, 2014

  Actual Average (KPQN) Record (KPQN)
Temperature  
Mean Temperature 52 °F -  
Max Temperature 59 °F 58 °F 87 °F (2009)
Min Temperature 46 °F 37 °F 17 °F (2013)
Degree Days  
Heating Degree Days 12    
Growing Degree Days 2 (Base 50)    
Moisture  
Dew Point 36 °F    
Average Humidity 56    
Maximum Humidity 76    
Minimum Humidity 44    
Precipitation  
Precipitation 0.01 in - - ()
Sea Level Pressure  
Sea Level Pressure 29.82 in    
Wind  
Wind Speed 19 mph (SE)    
Max Wind Speed 32 mph    
Max Gust Speed 43 mph    
Visibility 10 miles    
Events Rain , Thunderstorm    
Averages and records for this station are not official NWS values.
T = Trace of Precipitation, MM = Missing Value Source: NWS Daily Summary

Daily Weather History Graph

Daily Weather History Graph

Search for Another Location

Airport or City:

Trip Planner

Search our weather history database for the weather conditions in past years. The results will help you decide how hot, cold, wet, or windy it might be!

Date:

Astronomy

Apr. 23, 2014 Rise Set
Actual Time 6:29 AM CDT 8:17 PM CDT
Civil Twilight 5:58 AM CDT 8:48 PM CDT
Nautical Twilight 5:21 AM CDT 9:26 PM CDT
Astronomical Twilight 4:41 AM CDT 10:06 PM CDT
Moon 3:13 AM CDT (4/23) 2:16 PM CDT (4/23)
Length of Visible Light 14h 49m
Length of Day
13h 48m
Waning Crescent, 34% of the Moon is Illuminated
Apr 23
Waning Crescent
Apr 29
New
May 6
First Quarter
May 14
Full
May 21
Last Quarter

Hourly Weather History & Observations

Time (CDT) Temp. Windchill Dew Point Humidity Pressure Visibility Wind Dir Wind Speed Gust Speed Precip Events Conditions
12:15 AM 55.4 °F - 33.8 °F 44% 29.97 in 10.0 mi SE 13.8 mph - N/A   Scattered Clouds
12:35 AM 55.4 °F - 33.8 °F 44% 29.97 in 10.0 mi SE 11.5 mph - N/A   Scattered Clouds
12:55 AM 55.4 °F - 33.8 °F 44% 29.97 in 10.0 mi ESE 11.5 mph - N/A   Clear
1:15 AM 53.6 °F - 33.8 °F 47% 29.97 in 10.0 mi ESE 12.7 mph 17.3 mph N/A   Clear
1:35 AM 53.6 °F - 33.8 °F 47% 29.97 in 10.0 mi SE 13.8 mph - N/A   Clear
1:55 AM 53.6 °F - 33.8 °F 47% 29.97 in 10.0 mi SE 15.0 mph - N/A   Clear
2:15 AM 53.6 °F - 35.6 °F 51% 29.96 in 10.0 mi SE 11.5 mph - N/A   Clear
2:35 AM 53.6 °F - 35.6 °F 51% 29.95 in 10.0 mi SE 13.8 mph - N/A   Clear
2:55 AM 51.8 °F - 35.6 °F 54% 29.94 in 10.0 mi SE 15.0 mph 23.0 mph N/A   Clear
3:15 AM 51.8 °F - 35.6 °F 54% 29.93 in 10.0 mi SE 18.4 mph - N/A   Clear
3:35 AM 51.8 °F - 35.6 °F 54% 29.93 in 10.0 mi SE 18.4 mph 24.2 mph N/A   Clear
3:55 AM 51.8 °F - 35.6 °F 54% 29.93 in 10.0 mi SE 17.3 mph 21.9 mph N/A   Mostly Cloudy
4:15 AM 51.8 °F - 35.6 °F 54% 29.93 in 10.0 mi SE 17.3 mph 24.2 mph N/A Rain Light Rain
4:35 AM 51.8 °F - 35.6 °F 54% 29.94 in 10.0 mi SE 16.1 mph 20.7 mph N/A   Overcast
4:55 AM 51.8 °F - 35.6 °F 54% 29.94 in 10.0 mi SE 13.8 mph 19.6 mph N/A   Overcast
5:15 AM 50.0 °F - 35.6 °F 58% 29.96 in 10.0 mi SE 13.8 mph - N/A Rain Light Rain
5:35 AM 50.0 °F - 35.6 °F 58% 29.96 in 10.0 mi SE 16.1 mph 21.9 mph N/A   Overcast
5:55 AM 50.0 °F - 35.6 °F 58% 29.94 in 10.0 mi SE 18.4 mph 26.5 mph N/A Rain Light Rain
6:15 AM 50.0 °F - 35.6 °F 58% 29.95 in 10.0 mi SE 15.0 mph - N/A   Light Drizzle
6:35 AM 48.2 °F - 37.4 °F 66% 29.94 in 10.0 mi SE 18.4 mph 25.3 mph N/A   Light Drizzle
6:55 AM 48.2 °F - 37.4 °F 66% 29.90 in 7.0 mi SE 24.2 mph 29.9 mph N/A Rain Rain
7:15 AM 46.4 °F 38.7 °F 37.4 °F 71% 29.90 in 10.0 mi SE 20.7 mph 28.8 mph N/A Rain , Thunderstorm Light Thunderstorms and Rain
7:35 AM 46.4 °F 38.3 °F 37.4 °F 71% 29.89 in 10.0 mi SE 23.0 mph 31.1 mph N/A   Light Drizzle
7:55 AM 46.4 °F 38.3 °F 37.4 °F 71% 29.90 in 10.0 mi SE 23.0 mph 31.1 mph N/A   Overcast
8:15 AM 46.4 °F 39.2 °F 35.6 °F 66% 29.90 in 10.0 mi SE 18.4 mph 29.9 mph N/A   Overcast
8:35 AM 46.4 °F 38.1 °F 35.6 °F 66% 29.90 in 10.0 mi SE 24.2 mph 29.9 mph N/A   Overcast
8:54 AM 48.2 °F - 35.6 °F 62% 29.88 in 10.0 mi SE 21.9 mph 32.2 mph N/A   Overcast
9:15 AM 50.0 °F - 35.6 °F 58% 29.87 in 10.0 mi SE 23.0 mph 33.4 mph N/A   Overcast
9:35 AM 50.0 °F - 33.8 °F 54% 29.87 in 10.0 mi SE 23.0 mph 31.1 mph N/A   Overcast
9:55 AM 48.2 °F - 33.8 °F 58% 29.86 in 10.0 mi SE 21.9 mph 28.8 mph N/A   Overcast
10:15 AM 50.0 °F - 33.8 °F 54% 29.86 in 10.0 mi SE 21.9 mph 28.8 mph N/A   Overcast
10:35 AM 50.0 °F - 32.0 °F 50% 29.85 in 10.0 mi SE 24.2 mph 32.2 mph N/A   Overcast
10:55 AM 50.0 °F - 32.0 °F 50% 29.85 in 10.0 mi SE 24.2 mph 35.7 mph N/A   Overcast
11:15 AM 51.8 °F - 33.8 °F 50% 29.84 in 10.0 mi SE 26.5 mph 33.4 mph N/A   Overcast
11:35 AM 51.8 °F - 33.8 °F 50% 29.82 in 10.0 mi SE 24.2 mph 38.0 mph N/A   Overcast
12:15 PM 51.8 °F - 33.8 °F 50% 29.79 in 10.0 mi SE 31.1 mph 42.6 mph N/A   Overcast
12:35 PM 51.8 °F - 33.8 °F 50% 29.79 in 10.0 mi SE 32.2 mph 41.4 mph N/A   Overcast
12:55 PM 51.8 °F - 35.6 °F 54% 29.79 in 10.0 mi SE 25.3 mph 36.8 mph N/A   Overcast
1:15 PM 53.6 °F - 35.6 °F 51% 29.80 in 10.0 mi SSE 21.9 mph 32.2 mph N/A   Overcast
1:35 PM 53.6 °F - 37.4 °F 54% 29.79 in 10.0 mi SE 25.3 mph 35.7 mph N/A   Overcast
1:55 PM 53.6 °F - 37.4 °F 54% 29.78 in 10.0 mi SE 25.3 mph 34.5 mph N/A   Overcast
2:15 PM 53.6 °F - 37.4 °F 54% 29.76 in 10.0 mi SE 25.3 mph 36.8 mph N/A   Overcast
2:35 PM 55.4 °F - 37.4 °F 51% 29.75 in 10.0 mi SE 31.1 mph 40.3 mph N/A   Mostly Cloudy
3:15 PM 59.0 °F - 37.4 °F 45% 29.74 in 10.0 mi SE 28.8 mph 40.3 mph N/A   Scattered Clouds
3:35 PM 59.0 °F - 39.2 °F 48% 29.73 in 10.0 mi SE 28.8 mph 40.3 mph N/A   Scattered Clouds
3:55 PM 59.0 °F - 39.2 °F 48% 29.72 in 10.0 mi SE 28.8 mph 38.0 mph N/A   Mostly Cloudy
4:14 PM 59.0 °F - 39.2 °F 48% 29.72 in 10.0 mi SSE 24.2 mph 33.4 mph N/A   Scattered Clouds
4:35 PM 59.0 °F - 37.4 °F 45% 29.72 in 10.0 mi SSE 25.3 mph 36.8 mph N/A   Scattered Clouds
4:55 PM 57.2 °F - 37.4 °F 48% 29.72 in 10.0 mi SSE 26.5 mph 34.5 mph N/A   Scattered Clouds
5:15 PM 57.2 °F - 39.2 °F 51% 29.70 in 10.0 mi SE 28.8 mph 34.5 mph N/A   Scattered Clouds
5:35 PM 57.2 °F - 39.2 °F 51% 29.69 in 10.0 mi SE 29.9 mph 35.7 mph N/A   Scattered Clouds
5:55 PM 59.0 °F - 39.2 °F 48% 29.69 in 10.0 mi SE 27.6 mph 36.8 mph N/A   Clear
6:14 PM 55.4 °F - 39.2 °F 54% 29.69 in 10.0 mi SE 25.3 mph 34.5 mph N/A   Clear
6:35 PM 55.4 °F - 37.4 °F 51% 29.69 in 10.0 mi SE 31.1 mph 38.0 mph N/A   Scattered Clouds
6:55 PM 53.6 °F - 37.4 °F 54% 29.69 in 10.0 mi SE 21.9 mph 33.4 mph N/A   Clear
7:15 PM 53.6 °F - 37.4 °F 54% 29.71 in 10.0 mi SE 25.3 mph 32.2 mph N/A   Clear
7:35 PM 51.8 °F - 37.4 °F 58% 29.71 in 10.0 mi SE 23.0 mph 31.1 mph N/A   Scattered Clouds
7:55 PM 51.8 °F - 37.4 °F 58% 29.71 in 10.0 mi SE 24.2 mph 28.8 mph N/A   Mostly Cloudy
8:15 PM 51.8 °F - 39.2 °F 62% 29.72 in 10.0 mi SE 24.2 mph 29.9 mph N/A   Mostly Cloudy
8:35 PM 50.0 °F - 37.4 °F 62% 29.72 in 10.0 mi SE 20.7 mph 27.6 mph N/A   Overcast
8:55 PM 50.0 °F - 37.4 °F 62% 29.71 in 10.0 mi SE 21.9 mph 29.9 mph N/A   Overcast
9:14 PM 50.0 °F - 37.4 °F 62% 29.73 in 10.0 mi SE 19.6 mph 26.5 mph N/A   Overcast
9:35 PM 48.2 °F - 37.4 °F 66% 29.75 in 10.0 mi SE 15.0 mph 28.8 mph N/A   Overcast
9:55 PM 48.2 °F - 37.4 °F 66% 29.75 in 10.0 mi ESE 15.0 mph 20.7 mph N/A Rain , Thunderstorm Light Thunderstorms and Rain
10:15 PM 46.4 °F 40.1 °F 39.2 °F 76% 29.75 in 7.0 mi SE 15.0 mph 21.9 mph 0.01 in Rain Light Rain
10:35 PM 46.4 °F 38.3 °F 39.2 °F 76% 29.72 in 10.0 mi SE 23.0 mph 28.8 mph 0.01 in   Overcast
10:55 PM 46.4 °F 40.1 °F 37.4 °F 71% 29.71 in 10.0 mi ESE 15.0 mph 24.2 mph 0.01 in   Scattered Clouds
11:14 PM 46.4 °F 40.4 °F 37.4 °F 71% 29.73 in 10.0 mi ESE 13.8 mph 20.7 mph N/A   Clear
11:35 PM 46.4 °F 40.4 °F 37.4 °F 71% 29.73 in 10.0 mi SE 13.8 mph 19.6 mph N/A   Mostly Cloudy
11:55 PM 46.4 °F 39.8 °F 39.2 °F 76% 29.72 in 10.0 mi ESE 16.1 mph 21.9 mph N/A   Overcast